sensor_id;sensor_type;location;lat;lon;timestamp;temperature;humidity
21811;DHT22;11067;48.788;9.208;2024-01-16T00:01:30;0.40;98.70
21811;DHT22;11067;48.788;9.208;2024-01-16T00:03:56;0.40;97.90
21811;DHT22;11067;48.788;9.208;2024-01-16T00:06:21;0.40;97.80
21811;DHT22;11067;48.788;9.208;2024-01-16T00:08:47;0.30;98.20
21811;DHT22;11067;48.788;9.208;2024-01-16T00:11:12;0.30;99.40
21811;DHT22;11067;48.788;9.208;2024-01-16T00:13:38;0.30;99.10
21811;DHT22;11067;48.788;9.208;2024-01-16T00:16:03;0.30;98.60
21811;DHT22;11067;48.788;9.208;2024-01-16T00:18:29;0.30;99.60
21811;DHT22;11067;48.788;9.208;2024-01-16T00:20:55;0.30;99.30
21811;DHT22;11067;48.788;9.208;2024-01-16T00:23:20;0.30;99.20
21811;DHT22;11067;48.788;9.208;2024-01-16T00:25:46;0.30;99.20
21811;DHT22;11067;48.788;9.208;2024-01-16T00:28:12;0.30;99.50
21811;DHT22;11067;48.788;9.208;2024-01-16T00:30:37;0.30;98.70
21811;DHT22;11067;48.788;9.208;2024-01-16T00:33:03;0.30;98.70
21811;DHT22;11067;48.788;9.208;2024-01-16T00:35:29;0.20;99.20
21811;DHT22;11067;48.788;9.208;2024-01-16T00:37:54;0.20;99.90
21811;DHT22;11067;48.788;9.208;2024-01-16T00:40:20;0.20;99.90
21811;DHT22;11067;48.788;9.208;2024-01-16T00:42:45;0.10;99.90
21811;DHT22;11067;48.788;9.208;2024-01-16T00:45:11;0.20;99.90
21811;DHT22;11067;48.788;9.208;2024-01-16T00:47:36;0.20;99.90
21811;DHT22;11067;48.788;9.208;2024-01-16T00:50:02;0.10;99.90
21811;DHT22;11067;48.788;9.208;2024-01-16T00:52:28;0.10;99.90
21811;DHT22;11067;48.788;9.208;2024-01-16T00:54:54;0.10;99.90
21811;DHT22;11067;48.788;9.208;2024-01-16T00:57:19;0.00;99.90
21811;DHT22;11067;48.788;9.208;2024-01-16T00:59:48;0.00;99.90
21811;DHT22;11067;48.788;9.208;2024-01-16T01:02:14;0.00;99.90
21811;DHT22;11067;48.788;9.208;2024-01-16T01:04:40;0.00;99.90
21811;DHT22;11067;48.788;9.208;2024-01-16T01:07:07;0.10;99.90
21811;DHT22;11067;48.788;9.208;2024-01-16T01:09:33;0.10;99.90
21811;DHT22;11067;48.788;9.208;2024-01-16T01:11:59;0.20;99.90
21811;DHT22;11067;48.788;9.208;2024-01-16T01:14:24;0.20;99.90
21811;DHT22;11067;48.788;9.208;2024-01-16T01:16:51;0.10;99.90
21811;DHT22;11067;48.788;9.208;2024-01-16T01:19:17;0.20;99.90
21811;DHT22;11067;48.788;9.208;2024-01-16T01:21:43;0.20;99.80
21811;DHT22;11067;48.788;9.208;2024-01-16T01:24:08;0.30;99.30
21811;DHT22;11067;48.788;9.208;2024-01-16T01:26:34;0.30;98.20
21811;DHT22;11067;48.788;9.208;2024-01-16T01:29:00;0.30;97.70
21811;DHT22;11067;48.788;9.208;2024-01-16T01:31:25;0.30;98.70
21811;DHT22;11067;48.788;9.208;2024-01-16T01:33:51;0.20;99.60
21811;DHT22;11067;48.788;9.208;2024-01-16T01:36:16;0.20;98.90
21811;DHT22;11067;48.788;9.208;2024-01-16T01:38:43;0.20;99.10
21811;DHT22;11067;48.788;9.208;2024-01-16T01:41:08;0.20;98.10
21811;DHT22;11067;48.788;9.208;2024-01-16T01:43:37;0.20;97.70
21811;DHT22;11067;48.788;9.208;2024-01-16T01:48:35;0.20;98.80
21811;DHT22;11067;48.788;9.208;2024-01-16T01:51:01;0.20;99.80
21811;DHT22;11067;48.788;9.208;2024-01-16T01:53:47;0.20;98.70
21811;DHT22;11067;48.788;9.208;2024-01-16T01:56:18;0.20;99.60
21811;DHT22;11067;48.788;9.208;2024-01-16T01:58:46;0.20;97.90
21811;DHT22;11067;48.788;9.208;2024-01-16T02:01:14;0.20;98.50
21811;DHT22;11067;48.788;9.208;2024-01-16T02:03:44;0.20;98.80
21811;DHT22;11067;48.788;9.208;2024-01-16T02:06:11;0.20;99.30
21811;DHT22;11067;48.788;9.208;2024-01-16T02:08:37;0.10;99.90
21811;DHT22;11067;48.788;9.208;2024-01-16T02:11:03;0.10;99.90
21811;DHT22;11067;48.788;9.208;2024-01-16T02:13:29;0.00;99.90
21811;DHT22;11067;48.788;9.208;2024-01-16T02:15:54;0.00;99.90
21811;DHT22;11067;48.788;9.208;2024-01-16T02:18:20;-0.10;99.90
21811;DHT22;11067;48.788;9.208;2024-01-16T02:20:46;-0.20;99.90
21811;DHT22;11067;48.788;9.208;2024-01-16T02:23:13;-0.20;99.90
21811;DHT22;11067;48.788;9.208;2024-01-16T02:25:41;-0.20;99.90
21811;DHT22;11067;48.788;9.208;2024-01-16T02:28:07;-0.30;99.90
21811;DHT22;11067;48.788;9.208;2024-01-16T02:30:33;-0.30;99.90
21811;DHT22;11067;48.788;9.208;2024-01-16T02:32:59;-0.30;99.90
21811;DHT22;11067;48.788;9.208;2024-01-16T02:35:24;-0.30;99.90
21811;DHT22;11067;48.788;9.208;2024-01-16T02:37:50;-0.30;99.90
21811;DHT22;11067;48.788;9.208;2024-01-16T02:40:15;-0.40;99.90
21811;DHT22;11067;48.788;9.208;2024-01-16T02:42:41;-0.40;99.90
21811;DHT22;11067;48.788;9.208;2024-01-16T02:45:07;-0.40;99.90
21811;DHT22;11067;48.788;9.208;2024-01-16T02:47:33;-0.50;99.90
21811;DHT22;11067;48.788;9.208;2024-01-16T02:49:59;-0.50;99.90
21811;DHT22;11067;48.788;9.208;2024-01-16T02:52:25;-0.50;99.90
21811;DHT22;11067;48.788;9.208;2024-01-16T02:54:50;-0.50;99.90
21811;DHT22;11067;48.788;9.208;2024-01-16T02:57:16;-0.60;99.90
21811;DHT22;11067;48.788;9.208;2024-01-16T02:59:44;-0.60;99.90
21811;DHT22;11067;48.788;9.208;2024-01-16T03:02:10;-0.60;99.90
21811;DHT22;11067;48.788;9.208;2024-01-16T03:04:36;-0.60;99.90
21811;DHT22;11067;48.788;9.208;2024-01-16T03:07:02;-0.60;99.90
21811;DHT22;11067;48.788;9.208;2024-01-16T03:09:28;-0.60;99.90
21811;DHT22;11067;48.788;9.208;2024-01-16T03:11:53;-0.60;99.90
21811;DHT22;11067;48.788;9.208;2024-01-16T03:14:19;-0.60;99.90
21811;DHT22;11067;48.788;9.208;2024-01-16T03:16:44;-0.60;99.90
21811;DHT22;11067;48.788;9.208;2024-01-16T03:19:10;-0.60;99.90
21811;DHT22;11067;48.788;9.208;2024-01-16T03:21:37;-0.70;99.90
21811;DHT22;11067;48.788;9.208;2024-01-16T03:24:04;-0.60;99.90
21811;DHT22;11067;48.788;9.208;2024-01-16T03:26:31;-0.60;99.90
21811;DHT22;11067;48.788;9.208;2024-01-16T03:28:56;-0.70;99.90
21811;DHT22;11067;48.788;9.208;2024-01-16T03:31:22;-0.70;99.90
21811;DHT22;11067;48.788;9.208;2024-01-16T03:33:47;-0.80;99.90
21811;DHT22;11067;48.788;9.208;2024-01-16T03:36:13;-0.80;99.90
21811;DHT22;11067;48.788;9.208;2024-01-16T03:38:39;-0.80;99.90
21811;DHT22;11067;48.788;9.208;2024-01-16T03:41:05;-0.80;99.90
21811;DHT22;11067;48.788;9.208;2024-01-16T03:43:33;-0.80;99.90
21811;DHT22;11067;48.788;9.208;2024-01-16T03:45:59;-0.80;99.90
21811;DHT22;11067;48.788;9.208;2024-01-16T03:48:25;-0.80;99.90
21811;DHT22;11067;48.788;9.208;2024-01-16T03:50:51;-0.80;99.90
21811;DHT22;11067;48.788;9.208;2024-01-16T03:53:16;-0.90;99.90
21811;DHT22;11067;48.788;9.208;2024-01-16T03:55:42;-1.00;99.90
21811;DHT22;11067;48.788;9.208;2024-01-16T03:58:07;-1.00;99.90
21811;DHT22;11067;48.788;9.208;2024-01-16T04:00:33;-1.00;99.90
21811;DHT22;11067;48.788;9.208;2024-01-16T04:02:59;-1.00;99.90
21811;DHT22;11067;48.788;9.208;2024-01-16T04:05:24;-1.10;99.90
21811;DHT22;11067;48.788;9.208;2024-01-16T04:07:50;-1.10;99.90
21811;DHT22;11067;48.788;9.208;2024-01-16T04:10:15;-1.10;99.90
21811;DHT22;11067;48.788;9.208;2024-01-16T04:12:41;-1.10;99.90
21811;DHT22;11067;48.788;9.208;2024-01-16T04:15:07;-1.10;99.90
21811;DHT22;11067;48.788;9.208;2024-01-16T04:17:32;-1.10;99.90
21811;DHT22;11067;48.788;9.208;2024-01-16T04:19:58;-1.10;99.90
21811;DHT22;11067;48.788;9.208;2024-01-16T04:22:23;-1.10;99.90
21811;DHT22;11067;48.788;9.208;2024-01-16T04:24:49;-1.20;99.90
21811;DHT22;11067;48.788;9.208;2024-01-16T04:27:14;-1.20;99.90
21811;DHT22;11067;48.788;9.208;2024-01-16T04:29:40;-1.20;99.90
21811;DHT22;11067;48.788;9.208;2024-01-16T04:32:05;-1.20;99.90
21811;DHT22;11067;48.788;9.208;2024-01-16T04:34:31;-1.20;99.90
21811;DHT22;11067;48.788;9.208;2024-01-16T04:36:56;-1.40;99.90
21811;DHT22;11067;48.788;9.208;2024-01-16T04:39:22;-1.50;99.90
21811;DHT22;11067;48.788;9.208;2024-01-16T04:41:49;-1.40;99.90
21811;DHT22;11067;48.788;9.208;2024-01-16T04:44:14;-1.50;99.90
21811;DHT22;11067;48.788;9.208;2024-01-16T04:46:40;-1.50;99.90
21811;DHT22;11067;48.788;9.208;2024-01-16T04:49:05;-1.50;99.90
21811;DHT22;11067;48.788;9.208;2024-01-16T04:51:31;-1.70;99.90
21811;DHT22;11067;48.788;9.208;2024-01-16T04:53:56;-1.60;99.90
21811;DHT22;11067;48.788;9.208;2024-01-16T04:56:22;-1.60;99.90
21811;DHT22;11067;48.788;9.208;2024-01-16T04:58:47;-1.40;99.90
21811;DHT22;11067;48.788;9.208;2024-01-16T05:01:13;-1.50;99.90
21811;DHT22;11067;48.788;9.208;2024-01-16T05:03:39;-1.40;99.90
21811;DHT22;11067;48.788;9.208;2024-01-16T05:06:04;-1.40;99.90
21811;DHT22;11067;48.788;9.208;2024-01-16T05:08:30;-1.40;99.90
21811;DHT22;11067;48.788;9.208;2024-01-16T05:10:56;-1.50;99.90
21811;DHT22;11067;48.788;9.208;2024-01-16T05:13:22;-1.40;99.90
21811;DHT22;11067;48.788;9.208;2024-01-16T05:15:47;-1.50;99.90
21811;DHT22;11067;48.788;9.208;2024-01-16T05:18:13;-1.50;99.90
21811;DHT22;11067;48.788;9.208;2024-01-16T05:20:38;-1.50;99.90
21811;DHT22;11067;48.788;9.208;2024-01-16T05:23:04;-1.50;99.90
21811;DHT22;11067;48.788;9.208;2024-01-16T05:25:29;-1.60;99.90
21811;DHT22;11067;48.788;9.208;2024-01-16T05:27:55;-1.50;99.90
21811;DHT22;11067;48.788;9.208;2024-01-16T05:30:21;-1.50;99.90
21811;DHT22;11067;48.788;9.208;2024-01-16T05:32:46;-1.50;99.90
21811;DHT22;11067;48.788;9.208;2024-01-16T05:35:12;-1.50;99.90
21811;DHT22;11067;48.788;9.208;2024-01-16T05:37:37;-1.50;99.90
21811;DHT22;11067;48.788;9.208;2024-01-16T05:40:03;-1.50;99.90
21811;DHT22;11067;48.788;9.208;2024-01-16T05:42:29;-1.50;99.90
21811;DHT22;11067;48.788;9.208;2024-01-16T05:44:55;-1.50;99.90
21811;DHT22;11067;48.788;9.208;2024-01-16T05:47:21;-1.40;99.90
21811;DHT22;11067;48.788;9.208;2024-01-16T05:49:49;-1.50;99.90
21811;DHT22;11067;48.788;9.208;2024-01-16T05:52:15;-1.60;99.90
21811;DHT22;11067;48.788;9.208;2024-01-16T05:54:40;-1.60;99.90
21811;DHT22;11067;48.788;9.208;2024-01-16T05:57:06;-1.50;99.90
21811;DHT22;11067;48.788;9.208;2024-01-16T05:59:31;-1.50;99.90
21811;DHT22;11067;48.788;9.208;2024-01-16T06:01:57;-1.60;99.90
21811;DHT22;11067;48.788;9.208;2024-01-16T06:04:22;-1.50;99.90
21811;DHT22;11067;48.788;9.208;2024-01-16T06:06:48;-1.50;99.90
21811;DHT22;11067;48.788;9.208;2024-01-16T06:09:14;-1.50;99.90
21811;DHT22;11067;48.788;9.208;2024-01-16T06:11:40;-1.50;99.90
21811;DHT22;11067;48.788;9.208;2024-01-16T06:14:07;-1.40;99.90
21811;DHT22;11067;48.788;9.208;2024-01-16T06:16:33;-1.40;99.90
21811;DHT22;11067;48.788;9.208;2024-01-16T06:18:58;-1.40;99.90
21811;DHT22;11067;48.788;9.208;2024-01-16T06:21:24;-1.30;99.90
21811;DHT22;11067;48.788;9.208;2024-01-16T06:23:50;-1.40;99.90
21811;DHT22;11067;48.788;9.208;2024-01-16T06:26:15;-1.30;99.90
21811;DHT22;11067;48.788;9.208;2024-01-16T06:28:41;-1.30;99.90
21811;DHT22;11067;48.788;9.208;2024-01-16T06:31:11;-1.40;99.90
21811;DHT22;11067;48.788;9.208;2024-01-16T06:33:37;-1.40;99.90
21811;DHT22;11067;48.788;9.208;2024-01-16T06:36:03;-1.30;99.90
21811;DHT22;11067;48.788;9.208;2024-01-16T06:38:31;-1.30;99.90
21811;DHT22;11067;48.788;9.208;2024-01-16T06:40:57;-1.30;99.90
21811;DHT22;11067;48.788;9.208;2024-01-16T06:43:23;-1.30;99.90
21811;DHT22;11067;48.788;9.208;2024-01-16T06:45:49;-1.30;99.90
21811;DHT22;11067;48.788;9.208;2024-01-16T06:48:14;-1.30;99.90
21811;DHT22;11067;48.788;9.208;2024-01-16T06:50:41;-1.30;99.90
21811;DHT22;11067;48.788;9.208;2024-01-16T06:53:06;-1.30;99.90
21811;DHT22;11067;48.788;9.208;2024-01-16T06:55:32;-1.30;99.90
21811;DHT22;11067;48.788;9.208;2024-01-16T06:57:58;-1.30;97.30
21811;DHT22;11067;48.788;9.208;2024-01-16T07:00:23;-1.30;96.70
21811;DHT22;11067;48.788;9.208;2024-01-16T07:02:52;-1.30;96.30
21811;DHT22;11067;48.788;9.208;2024-01-16T07:05:17;-1.30;93.80
21811;DHT22;11067;48.788;9.208;2024-01-16T07:07:43;-1.30;93.00
21811;DHT22;11067;48.788;9.208;2024-01-16T07:10:08;-1.30;94.40
21811;DHT22;11067;48.788;9.208;2024-01-16T07:12:39;-1.30;92.70
21811;DHT22;11067;48.788;9.208;2024-01-16T07:15:05;-1.30;93.00
21811;DHT22;11067;48.788;9.208;2024-01-16T07:17:30;-1.30;91.80
21811;DHT22;11067;48.788;9.208;2024-01-16T07:19:56;-1.30;92.30
21811;DHT22;11067;48.788;9.208;2024-01-16T07:22:23;-1.20;90.70
21811;DHT22;11067;48.788;9.208;2024-01-16T07:24:49;-1.20;91.50
21811;DHT22;11067;48.788;9.208;2024-01-16T07:27:14;-1.30;90.40
21811;DHT22;11067;48.788;9.208;2024-01-16T07:29:40;-1.20;90.70
21811;DHT22;11067;48.788;9.208;2024-01-16T07:32:06;-1.30;88.50
21811;DHT22;11067;48.788;9.208;2024-01-16T07:34:32;-1.30;86.30
21811;DHT22;11067;48.788;9.208;2024-01-16T07:36:58;-1.30;87.80
21811;DHT22;11067;48.788;9.208;2024-01-16T07:39:23;-1.20;87.10
21811;DHT22;11067;48.788;9.208;2024-01-16T07:41:49;-1.20;86.50
21811;DHT22;11067;48.788;9.208;2024-01-16T07:44:15;-1.20;86.00
21811;DHT22;11067;48.788;9.208;2024-01-16T07:46:40;-1.20;84.00
21811;DHT22;11067;48.788;9.208;2024-01-16T07:49:06;-1.10;80.90
21811;DHT22;11067;48.788;9.208;2024-01-16T07:51:31;-1.10;76.60
21811;DHT22;11067;48.788;9.208;2024-01-16T07:54:08;-1.10;76.10
21811;DHT22;11067;48.788;9.208;2024-01-16T07:56:34;-1.10;75.20
21811;DHT22;11067;48.788;9.208;2024-01-16T07:59:00;-1.10;77.10
21811;DHT22;11067;48.788;9.208;2024-01-16T08:01:27;-1.10;74.40
21811;DHT22;11067;48.788;9.208;2024-01-16T08:03:54;-1.10;77.20
21811;DHT22;11067;48.788;9.208;2024-01-16T08:06:20;-1.00;75.90
21811;DHT22;11067;48.788;9.208;2024-01-16T08:08:46;-1.00;75.10
21811;DHT22;11067;48.788;9.208;2024-01-16T08:11:12;-0.90;75.70
21811;DHT22;11067;48.788;9.208;2024-01-16T08:13:37;-0.80;76.10
21811;DHT22;11067;48.788;9.208;2024-01-16T08:16:04;-0.80;75.40
21811;DHT22;11067;48.788;9.208;2024-01-16T08:18:32;-0.70;73.90
21811;DHT22;11067;48.788;9.208;2024-01-16T08:21:00;-0.60;72.30
21811;DHT22;11067;48.788;9.208;2024-01-16T08:23:25;-0.50;72.60
21811;DHT22;11067;48.788;9.208;2024-01-16T08:25:51;-0.50;71.70
21811;DHT22;11067;48.788;9.208;2024-01-16T08:28:17;-0.50;69.20
21811;DHT22;11067;48.788;9.208;2024-01-16T08:30:43;-0.50;66.30
21811;DHT22;11067;48.788;9.208;2024-01-16T08:33:09;-0.40;66.40
21811;DHT22;11067;48.788;9.208;2024-01-16T08:35:35;-0.40;66.50
21811;DHT22;11067;48.788;9.208;2024-01-16T08:38:00;-0.30;66.20
21811;DHT22;11067;48.788;9.208;2024-01-16T08:40:26;-0.20;65.60
21811;DHT22;11067;48.788;9.208;2024-01-16T08:42:52;-0.20;64.00
21811;DHT22;11067;48.788;9.208;2024-01-16T08:45:20;-0.10;60.80
21811;DHT22;11067;48.788;9.208;2024-01-16T08:47:46;-0.20;57.10
21811;DHT22;11067;48.788;9.208;2024-01-16T08:50:12;-0.20;58.70
21811;DHT22;11067;48.788;9.208;2024-01-16T08:52:37;-0.20;55.70
21811;DHT22;11067;48.788;9.208;2024-01-16T08:55:03;-0.20;54.40
21811;DHT22;11067;48.788;9.208;2024-01-16T08:57:29;-0.10;58.40
21811;DHT22;11067;48.788;9.208;2024-01-16T08:59:55;-0.20;56.90
21811;DHT22;11067;48.788;9.208;2024-01-16T09:02:21;-0.20;56.80
21811;DHT22;11067;48.788;9.208;2024-01-16T09:04:47;-0.20;54.80
21811;DHT22;11067;48.788;9.208;2024-01-16T09:07:16;-0.30;54.40
21811;DHT22;11067;48.788;9.208;2024-01-16T09:09:42;-0.10;55.30
21811;DHT22;11067;48.788;9.208;2024-01-16T09:12:11;0.00;54.80
21811;DHT22;11067;48.788;9.208;2024-01-16T09:14:36;0.00;52.00
21811;DHT22;11067;48.788;9.208;2024-01-16T09:17:02;0.20;51.50
21811;DHT22;11067;48.788;9.208;2024-01-16T09:19:28;0.30;51.40
21811;DHT22;11067;48.788;9.208;2024-01-16T09:21:55;0.40;51.20
21811;DHT22;11067;48.788;9.208;2024-01-16T09:24:21;0.30;50.10
21811;DHT22;11067;48.788;9.208;2024-01-16T09:26:46;0.30;50.10
21811;DHT22;11067;48.788;9.208;2024-01-16T09:29:12;0.40;50.50
21811;DHT22;11067;48.788;9.208;2024-01-16T09:31:40;0.30;49.30
21811;DHT22;11067;48.788;9.208;2024-01-16T09:34:05;0.20;50.80
21811;DHT22;11067;48.788;9.208;2024-01-16T09:36:31;0.30;50.90
21811;DHT22;11067;48.788;9.208;2024-01-16T09:38:56;0.50;51.90
21811;DHT22;11067;48.788;9.208;2024-01-16T09:41:23;0.50;48.30
21811;DHT22;11067;48.788;9.208;2024-01-16T09:43:49;0.70;50.20
21811;DHT22;11067;48.788;9.208;2024-01-16T09:46:17;0.90;48.90
21811;DHT22;11067;48.788;9.208;2024-01-16T09:48:46;0.80;47.90
21811;DHT22;11067;48.788;9.208;2024-01-16T09:51:12;0.60;48.80
21811;DHT22;11067;48.788;9.208;2024-01-16T09:53:42;0.60;49.80
21811;DHT22;11067;48.788;9.208;2024-01-16T09:56:15;0.80;48.80
21811;DHT22;11067;48.788;9.208;2024-01-16T09:58:43;1.00;46.20
21811;DHT22;11067;48.788;9.208;2024-01-16T10:01:10;1.10;46.20
21811;DHT22;11067;48.788;9.208;2024-01-16T10:03:36;0.80;50.20
21811;DHT22;11067;48.788;9.208;2024-01-16T10:06:05;1.00;49.00
21811;DHT22;11067;48.788;9.208;2024-01-16T10:08:31;0.80;47.70
21811;DHT22;11067;48.788;9.208;2024-01-16T10:10:58;0.80;48.00
21811;DHT22;11067;48.788;9.208;2024-01-16T10:13:23;1.00;46.90
21811;DHT22;11067;48.788;9.208;2024-01-16T10:15:50;1.10;44.80
21811;DHT22;11067;48.788;9.208;2024-01-16T10:18:25;1.20;45.60
21811;DHT22;11067;48.788;9.208;2024-01-16T10:20:51;1.10;47.40
21811;DHT22;11067;48.788;9.208;2024-01-16T10:23:31;1.20;50.60
21811;DHT22;11067;48.788;9.208;2024-01-16T10:28:36;1.40;46.80
21811;DHT22;11067;48.788;9.208;2024-01-16T10:31:08;1.40;46.80
21811;DHT22;11067;48.788;9.208;2024-01-16T10:33:35;1.50;43.90
21811;DHT22;11067;48.788;9.208;2024-01-16T10:36:12;1.20;45.90
21811;DHT22;11067;48.788;9.208;2024-01-16T10:38:39;1.20;47.80
21811;DHT22;11067;48.788;9.208;2024-01-16T10:41:13;1.10;47.10
21811;DHT22;11067;48.788;9.208;2024-01-16T10:43:39;0.90;47.40
21811;DHT22;11067;48.788;9.208;2024-01-16T10:46:13;1.10;47.90
21811;DHT22;11067;48.788;9.208;2024-01-16T10:48:40;1.50;48.10
21811;DHT22;11067;48.788;9.208;2024-01-16T10:51:07;1.50;47.30
21811;DHT22;11067;48.788;9.208;2024-01-16T10:53:34;1.70;44.00
21811;DHT22;11067;48.788;9.208;2024-01-16T10:56:01;1.60;42.50
21811;DHT22;11067;48.788;9.208;2024-01-16T10:58:30;1.90;43.80
21811;DHT22;11067;48.788;9.208;2024-01-16T11:00:57;2.00;42.40
21811;DHT22;11067;48.788;9.208;2024-01-16T11:03:34;2.00;42.40
21811;DHT22;11067;48.788;9.208;2024-01-16T11:06:05;2.20;41.90
21811;DHT22;11067;48.788;9.208;2024-01-16T11:08:31;1.90;35.70
21811;DHT22;11067;48.788;9.208;2024-01-16T11:11:02;1.90;37.70
21811;DHT22;11067;48.788;9.208;2024-01-16T11:13:31;1.90;37.10
21811;DHT22;11067;48.788;9.208;2024-01-16T11:15:59;2.00;40.00
21811;DHT22;11067;48.788;9.208;2024-01-16T11:18:25;2.10;38.10
21811;DHT22;11067;48.788;9.208;2024-01-16T11:20:51;2.30;36.20
21811;DHT22;11067;48.788;9.208;2024-01-16T11:23:17;2.20;36.50
21811;DHT22;11067;48.788;9.208;2024-01-16T11:25:43;2.30;37.50
21811;DHT22;11067;48.788;9.208;2024-01-16T11:28:13;2.40;34.80
21811;DHT22;11067;48.788;9.208;2024-01-16T11:30:39;2.60;36.20
21811;DHT22;11067;48.788;9.208;2024-01-16T11:33:05;2.60;35.50
21811;DHT22;11067;48.788;9.208;2024-01-16T11:35:35;2.70;35.40
21811;DHT22;11067;48.788;9.208;2024-01-16T11:38:16;2.70;33.60
21811;DHT22;11067;48.788;9.208;2024-01-16T11:40:42;2.60;32.90
21811;DHT22;11067;48.788;9.208;2024-01-16T11:46:04;2.50;34.60
21811;DHT22;11067;48.788;9.208;2024-01-16T11:48:29;2.40;33.40
21811;DHT22;11067;48.788;9.208;2024-01-16T11:50:55;2.40;32.90
21811;DHT22;11067;48.788;9.208;2024-01-16T11:53:34;2.50;32.20
21811;DHT22;11067;48.788;9.208;2024-01-16T12:01:51;2.30;32.40
21811;DHT22;11067;48.788;9.208;2024-01-16T12:04:18;2.50;31.60
21811;DHT22;11067;48.788;9.208;2024-01-16T12:06:59;2.50;31.10
21811;DHT22;11067;48.788;9.208;2024-01-16T12:09:27;2.60;30.00
21811;DHT22;11067;48.788;9.208;2024-01-16T12:11:59;2.50;29.40
21811;DHT22;11067;48.788;9.208;2024-01-16T12:14:27;2.50;29.50
21811;DHT22;11067;48.788;9.208;2024-01-16T12:16:53;2.60;27.90
21811;DHT22;11067;48.788;9.208;2024-01-16T12:19:18;2.60;27.90
21811;DHT22;11067;48.788;9.208;2024-01-16T12:21:45;2.60;26.70
21811;DHT22;11067;48.788;9.208;2024-01-16T12:24:11;2.60;27.10
21811;DHT22;11067;48.788;9.208;2024-01-16T12:26:37;2.60;26.80
21811;DHT22;11067;48.788;9.208;2024-01-16T12:29:03;2.60;23.80
21811;DHT22;11067;48.788;9.208;2024-01-16T12:31:29;2.60;19.90
21811;DHT22;11067;48.788;9.208;2024-01-16T12:34:15;2.70;19.80
21811;DHT22;11067;48.788;9.208;2024-01-16T12:36:40;2.70;19.20
21811;DHT22;11067;48.788;9.208;2024-01-16T12:39:06;2.70;20.90
21811;DHT22;11067;48.788;9.208;2024-01-16T12:41:41;2.80;24.00
21811;DHT22;11067;48.788;9.208;2024-01-16T12:44:06;2.70;19.60
21811;DHT22;11067;48.788;9.208;2024-01-16T12:46:32;2.70;15.90
21811;DHT22;11067;48.788;9.208;2024-01-16T12:49:04;2.70;15.20
21811;DHT22;11067;48.788;9.208;2024-01-16T12:51:31;2.80;13.10
21811;DHT22;11067;48.788;9.208;2024-01-16T12:54:14;2.90;12.00
21811;DHT22;11067;48.788;9.208;2024-01-16T12:56:39;3.00;12.80
21811;DHT22;11067;48.788;9.208;2024-01-16T12:59:10;2.80;9.60
21811;DHT22;11067;48.788;9.208;2024-01-16T13:01:40;2.80;9.60
21811;DHT22;11067;48.788;9.208;2024-01-16T13:04:07;2.90;10.30
21811;DHT22;11067;48.788;9.208;2024-01-16T13:06:33;3.10;10.20
21811;DHT22;11067;48.788;9.208;2024-01-16T13:09:11;3.00;10.00
21811;DHT22;11067;48.788;9.208;2024-01-16T13:11:51;3.20;9.30
21811;DHT22;11067;48.788;9.208;2024-01-16T13:14:20;3.20;8.00
21811;DHT22;11067;48.788;9.208;2024-01-16T13:16:46;3.00;7.10
21811;DHT22;11067;48.788;9.208;2024-01-16T13:19:15;2.70;8.30
21811;DHT22;11067;48.788;9.208;2024-01-16T13:21:40;2.90;10.30
21811;DHT22;11067;48.788;9.208;2024-01-16T13:24:06;2.90;10.50
21811;DHT22;11067;48.788;9.208;2024-01-16T13:26:32;3.00;10.50
21811;DHT22;11067;48.788;9.208;2024-01-16T13:28:58;2.90;10.50
21811;DHT22;11067;48.788;9.208;2024-01-16T13:31:23;2.80;11.20
21811;DHT22;11067;48.788;9.208;2024-01-16T13:33:49;2.80;12.70
21811;DHT22;11067;48.788;9.208;2024-01-16T13:36:14;2.80;12.70
21811;DHT22;11067;48.788;9.208;2024-01-16T13:38:46;2.80;14.10
21811;DHT22;11067;48.788;9.208;2024-01-16T13:41:12;2.90;14.40
21811;DHT22;11067;48.788;9.208;2024-01-16T13:43:37;2.90;13.30
21811;DHT22;11067;48.788;9.208;2024-01-16T13:46:03;3.10;14.60
21811;DHT22;11067;48.788;9.208;2024-01-16T13:48:29;2.90;13.60
21811;DHT22;11067;48.788;9.208;2024-01-16T13:50:55;3.00;13.30
21811;DHT22;11067;48.788;9.208;2024-01-16T13:53:20;3.10;12.50
21811;DHT22;11067;48.788;9.208;2024-01-16T13:55:46;3.20;10.30
21811;DHT22;11067;48.788;9.208;2024-01-16T13:58:11;3.10;9.20
21811;DHT22;11067;48.788;9.208;2024-01-16T14:00:37;3.20;9.10
21811;DHT22;11067;48.788;9.208;2024-01-16T14:03:03;3.00;7.70
21811;DHT22;11067;48.788;9.208;2024-01-16T14:05:30;2.90;9.30
21811;DHT22;11067;48.788;9.208;2024-01-16T14:07:56;2.90;9.00
21811;DHT22;11067;48.788;9.208;2024-01-16T14:10:22;3.00;9.10
21811;DHT22;11067;48.788;9.208;2024-01-16T14:12:50;3.00;8.30
21811;DHT22;11067;48.788;9.208;2024-01-16T14:15:18;3.00;8.10
21811;DHT22;11067;48.788;9.208;2024-01-16T14:17:50;3.10;9.00
21811;DHT22;11067;48.788;9.208;2024-01-16T14:20:17;2.90;8.00
21811;DHT22;11067;48.788;9.208;2024-01-16T14:22:44;2.80;9.80
21811;DHT22;11067;48.788;9.208;2024-01-16T14:25:11;2.70;11.70
21811;DHT22;11067;48.788;9.208;2024-01-16T14:27:41;2.60;12.60
21811;DHT22;11067;48.788;9.208;2024-01-16T14:30:13;2.60;13.70
21811;DHT22;11067;48.788;9.208;2024-01-16T14:32:45;2.50;13.30
21811;DHT22;11067;48.788;9.208;2024-01-16T14:35:13;2.60;13.40
21811;DHT22;11067;48.788;9.208;2024-01-16T14:37:40;2.60;13.40
21811;DHT22;11067;48.788;9.208;2024-01-16T14:40:06;2.70;13.20
21811;DHT22;11067;48.788;9.208;2024-01-16T14:42:40;2.60;12.70
21811;DHT22;11067;48.788;9.208;2024-01-16T14:45:07;2.60;13.10
21811;DHT22;11067;48.788;9.208;2024-01-16T14:47:33;2.50;13.40
21811;DHT22;11067;48.788;9.208;2024-01-16T14:49:58;2.50;13.00
21811;DHT22;11067;48.788;9.208;2024-01-16T14:52:24;2.50;13.50
21811;DHT22;11067;48.788;9.208;2024-01-16T14:54:49;2.50;10.80
21811;DHT22;11067;48.788;9.208;2024-01-16T14:57:15;2.50;10.40
21811;DHT22;11067;48.788;9.208;2024-01-16T14:59:41;2.40;12.20
21811;DHT22;11067;48.788;9.208;2024-01-16T15:02:08;2.30;12.90
21811;DHT22;11067;48.788;9.208;2024-01-16T15:04:42;2.30;14.70
21811;DHT22;11067;48.788;9.208;2024-01-16T15:07:08;2.20;14.80
21811;DHT22;11067;48.788;9.208;2024-01-16T15:09:35;2.20;16.30
21811;DHT22;11067;48.788;9.208;2024-01-16T15:12:04;2.20;16.50
21811;DHT22;11067;48.788;9.208;2024-01-16T15:14:29;2.30;17.30
21811;DHT22;11067;48.788;9.208;2024-01-16T15:16:55;2.20;17.30
21811;DHT22;11067;48.788;9.208;2024-01-16T15:19:21;2.10;17.10
21811;DHT22;11067;48.788;9.208;2024-01-16T15:21:46;2.10;17.20
21811;DHT22;11067;48.788;9.208;2024-01-16T15:24:13;2.10;18.00
21811;DHT22;11067;48.788;9.208;2024-01-16T15:26:44;2.00;18.70
21811;DHT22;11067;48.788;9.208;2024-01-16T15:29:10;2.10;18.70
21811;DHT22;11067;48.788;9.208;2024-01-16T15:31:37;2.00;19.00
21811;DHT22;11067;48.788;9.208;2024-01-16T15:34:03;1.90;19.00
21811;DHT22;11067;48.788;9.208;2024-01-16T15:36:28;1.70;19.70
21811;DHT22;11067;48.788;9.208;2024-01-16T15:38:54;1.80;20.80
21811;DHT22;11067;48.788;9.208;2024-01-16T15:41:19;1.70;20.70
21811;DHT22;11067;48.788;9.208;2024-01-16T15:43:45;1.60;21.00
21811;DHT22;11067;48.788;9.208;2024-01-16T15:46:11;1.60;21.50
21811;DHT22;11067;48.788;9.208;2024-01-16T15:48:37;1.50;21.80
21811;DHT22;11067;48.788;9.208;2024-01-16T15:51:03;1.60;23.20